Time;durP1;ratioP1;P1;durP2;ratioP2;P2;SDS_P1;SDS_P2;PMS_P1;PMS_P2;Temp;Humidity;BMP_temperature;BMP_pressure;BME280_temperature;BME280_humidity;BME280_pressure;Samples;Min_cycle;Max_cycle;Signal;HPM_P1;HPM_P2
2023/06/28 00:00:13;;;;;;;7.38;2.63;;;16.90;99.90;;;;;;5035965;28;20524;-70
2023/06/28 00:02:39;;;;;;;;;;;16.90;99.90;;;;;;5031481;28;20075;-70
2023/06/28 00:05:08;;;;;;;5.65;1.85;;;16.80;99.90;;;;;;5022168;28;19992;-70
2023/06/28 00:07:34;;;;;;;6.38;1.73;;;16.80;99.90;;;;;;5035281;28;20598;-70
2023/06/28 00:10:00;;;;;;;4.55;2.03;;;16.80;99.90;;;;;;5023538;28;20048;-70
2023/06/28 00:12:27;;;;;;;7.43;2.75;;;16.80;99.90;;;;;;5028744;28;20041;-70
2023/06/28 00:14:54;;;;;;;10.50;2.10;;;16.80;99.90;;;;;;5027447;28;20065;-70
2023/06/28 00:17:27;;;;;;;;;;;16.80;99.90;;;;;;5010906;28;20125;-70
2023/06/28 00:20:06;;;;;;;9.95;2.90;;;16.80;99.90;;;;;;5011186;28;19986;-70
2023/06/28 00:22:32;;;;;;;8.07;2.10;;;16.80;99.90;;;;;;5009986;28;20053;-70
2023/06/28 00:25:04;;;;;;;;;;;16.70;99.90;;;;;;5023567;28;20041;-70
2023/06/28 00:27:30;;;;;;;8.77;1.95;;;16.70;99.90;;;;;;5006273;28;19986;-70
2023/06/28 00:29:57;;;;;;;6.53;2.03;;;16.70;99.90;;;;;;5023268;28;20049;-70
2023/06/28 00:32:23;;;;;;;6.03;1.65;;;16.70;99.90;;;;;;5017287;28;20174;-70
2023/06/28 00:34:49;;;;;;;6.57;2.17;;;16.70;99.90;;;;;;4975599;28;20038;-70
2023/06/28 00:37:15;;;;;;;7.03;2.35;;;16.70;99.90;;;;;;5011098;28;20519;-70
2023/06/28 00:39:41;;;;;;;10.43;2.08;;;16.70;99.90;;;;;;5014482;28;20175;-70
2023/06/28 00:42:07;;;;;;;6.43;2.20;;;16.60;99.90;;;;;;4999070;28;20060;-70
2023/06/28 00:44:34;;;;;;;7.05;1.77;;;16.60;99.90;;;;;;5009140;28;20045;-71
2023/06/28 00:47:01;;;;;;;4.43;2.05;;;16.60;99.90;;;;;;4995618;28;20511;-71
2023/06/28 00:49:30;;;;;;;5.47;2.15;;;16.60;99.90;;;;;;5016198;28;20046;-70
2023/06/28 00:51:56;;;;;;;3.88;1.70;;;16.70;99.90;;;;;;5024731;28;20547;-71
2023/06/28 00:54:22;;;;;;;;;;;16.70;99.90;;;;;;4990901;28;20098;-70
2023/06/28 00:56:48;;;;;;;4.70;1.70;;;16.70;99.90;;;;;;5021923;28;20257;-70
2023/06/28 00:59:15;;;;;;;6.20;1.85;;;16.70;99.90;;;;;;4994165;28;20572;-70
2023/06/28 01:01:42;;;;;;;6.55;1.90;;;16.70;99.90;;;;;;5004440;28;20050;-70
2023/06/28 01:04:08;;;;;;;5.07;2.30;;;16.70;99.90;;;;;;5017307;28;20065;-70
2023/06/28 01:06:37;;;;;;;6.85;1.85;;;16.60;99.90;;;;;;5025697;28;20651;-70
2023/06/28 01:09:07;;;;;;;4.20;1.70;;;16.60;99.90;;;;;;4998734;28;20439;-70
2023/06/28 01:11:34;;;;;;;6.78;2.17;;;16.60;99.90;;;;;;5019807;28;20442;-70
2023/06/28 01:14:01;;;;;;;4.65;2.25;;;16.60;99.90;;;;;;5019228;28;20042;-71
2023/06/28 01:16:27;;;;;;;6.38;1.73;;;16.60;99.90;;;;;;4996514;28;20048;-70
2023/06/28 01:18:53;;;;;;;9.30;2.28;;;16.60;99.90;;;;;;5005914;28;20465;-70
2023/06/28 01:21:22;;;;;;;5.60;1.67;;;16.50;99.90;;;;;;5016384;28;20045;-70
2023/06/28 01:23:48;;;;;;;5.88;2.28;;;16.60;99.90;;;;;;4988411;28;20037;-70
2023/06/28 01:26:16;;;;;;;4.63;2.05;;;16.60;99.90;;;;;;5000128;28;20084;-70
2023/06/28 01:28:43;;;;;;;6.30;2.17;;;16.60;99.90;;;;;;5008425;28;20068;-70
2023/06/28 01:31:09;;;;;;;;;;;16.60;99.90;;;;;;5004621;28;20088;-70
2023/06/28 01:33:34;;;;;;;5.15;1.90;;;16.50;99.90;;;;;;4998943;28;19956;-70
2023/06/28 01:36:00;;;;;;;7.65;2.45;;;16.50;99.90;;;;;;5006552;28;20403;-70
2023/06/28 01:38:27;;;;;;;6.90;2.08;;;16.50;99.90;;;;;;5005729;28;20096;-70
2023/06/28 01:40:54;;;;;;;6.85;2.63;;;16.50;99.90;;;;;;5011769;28;20048;-70
2023/06/28 01:43:20;;;;;;;;;;;16.50;99.90;;;;;;5023823;28;20033;-70
2023/06/28 01:45:46;;;;;;;4.00;2.35;;;16.40;99.90;;;;;;4998418;28;19922;-70
2023/06/28 01:48:13;;;;;;;6.55;2.80;;;16.40;99.90;;;;;;5025444;28;20136;-70
2023/06/28 01:50:39;;;;;;;4.07;2.20;;;16.40;99.90;;;;;;5001441;28;20049;-70
2023/06/28 01:53:06;;;;;;;5.30;2.60;;;16.40;99.90;;;;;;5011250;28;20034;-70
2023/06/28 01:55:33;;;;;;;7.55;2.70;;;16.40;99.90;;;;;;4998216;28;20050;-70
2023/06/28 01:57:58;;;;;;;7.53;2.28;;;16.40;99.90;;;;;;5015485;28;20041;-71
2023/06/28 02:00:24;;;;;;;6.97;2.22;;;16.40;99.90;;;;;;4991445;28;20053;-70
2023/06/28 02:02:52;;;;;;;6.65;2.10;;;16.40;99.90;;;;;;5002104;28;20080;-70
2023/06/28 02:05:18;;;;;;;6.60;2.30;;;16.40;99.90;;;;;;5023147;28;20103;-70
2023/06/28 02:07:44;;;;;;;5.70;2.25;;;16.40;99.90;;;;;;4984148;28;20399;-70
2023/06/28 02:10:10;;;;;;;4.95;1.83;;;16.40;99.90;;;;;;4992746;28;20050;-70
2023/06/28 02:12:36;;;;;;;7.38;2.47;;;16.30;99.90;;;;;;5016115;28;20131;-70
2023/06/28 02:15:04;;;;;;;5.97;2.15;;;16.30;99.90;;;;;;5016894;28;20092;-70
2023/06/28 02:17:30;;;;;;;5.60;2.03;;;16.30;99.90;;;;;;5017244;28;20056;-70
2023/06/28 02:19:57;;;;;;;5.43;2.15;;;16.30;99.90;;;;;;5019393;28;20127;-70
2023/06/28 02:22:22;;;;;;;7.13;1.90;;;16.30;99.90;;;;;;4999691;28;20046;-70
2023/06/28 02:24:48;;;;;;;6.18;2.17;;;16.30;99.90;;;;;;4991340;28;20427;-70
2023/06/28 02:27:15;;;;;;;5.57;2.28;;;16.30;99.90;;;;;;5016207;28;20061;-70
2023/06/28 02:29:40;;;;;;;6.97;1.92;;;16.30;99.90;;;;;;5018069;28;20518;-70
2023/06/28 02:32:06;;;;;;;5.78;1.75;;;16.20;99.90;;;;;;4999718;28;20119;-69
2023/06/28 02:34:32;;;;;;;5.03;1.90;;;16.20;99.90;;;;;;5015392;28;20057;-70
2023/06/28 02:36:58;;;;;;;5.70;2.00;;;16.20;99.90;;;;;;5010813;28;20056;-69
2023/06/28 02:39:24;;;;;;;7.90;1.73;;;16.20;99.90;;;;;;5003562;28;20088;-69
2023/06/28 02:41:50;;;;;;;4.43;1.67;;;16.20;99.90;;;;;;5006366;28;20041;-69
2023/06/28 02:44:15;;;;;;;3.42;1.70;;;16.10;99.90;;;;;;5018877;28;20046;-69
2023/06/28 02:46:41;;;;;;;3.75;1.30;;;16.10;99.90;;;;;;5014689;28;20192;-69
2023/06/28 02:49:07;;;;;;;4.18;1.92;;;16.10;99.90;;;;;;5015539;28;20054;-68
2023/06/28 02:51:33;;;;;;;;;;;16.00;99.90;;;;;;5028885;28;20033;-69
2023/06/28 02:53:59;;;;;;;2.65;1.42;;;16.00;99.90;;;;;;5005451;28;20236;-69
2023/06/28 02:56:25;;;;;;;5.25;1.67;;;16.00;99.90;;;;;;4984053;28;20633;-68
2023/06/28 02:58:51;;;;;;;;;;;16.00;99.90;;;;;;5029097;28;20052;-69
2023/06/28 03:01:17;;;;;;;2.22;1.20;;;15.90;99.90;;;;;;5024588;28;19999;-69
2023/06/28 03:03:42;;;;;;;3.38;1.50;;;15.90;99.90;;;;;;5015533;28;20506;-68
2023/06/28 03:06:08;;;;;;;4.25;1.15;;;15.90;99.90;;;;;;4998051;28;20113;-69
2023/06/28 03:08:34;;;;;;;5.13;1.13;;;15.90;99.90;;;;;;5009730;28;20148;-69
2023/06/28 03:10:59;;;;;;;4.00;1.25;;;15.90;99.90;;;;;;5030171;28;20042;-69
2023/06/28 03:13:25;;;;;;;3.53;1.20;;;15.90;99.90;;;;;;4999888;28;20506;-69
2023/06/28 03:15:51;;;;;;;5.00;1.27;;;15.90;99.90;;;;;;5026960;28;20091;-69
2023/06/28 03:18:17;;;;;;;3.83;1.10;;;15.80;99.90;;;;;;5004921;28;20152;-69
2023/06/28 03:20:43;;;;;;;3.70;1.15;;;15.80;99.90;;;;;;5026368;28;20137;-69
2023/06/28 03:23:09;;;;;;;4.10;0.90;;;15.80;99.90;;;;;;4999466;28;20098;-69
2023/06/28 03:25:34;;;;;;;3.83;1.10;;;15.80;99.90;;;;;;5030330;28;20064;-69
2023/06/28 03:28:00;;;;;;;3.40;1.33;;;15.80;99.90;;;;;;5007673;28;20395;-69
2023/06/28 03:30:26;;;;;;;2.10;1.10;;;15.80;99.90;;;;;;5008781;28;20436;-69
2023/06/28 03:32:52;;;;;;;3.83;1.33;;;15.80;99.90;;;;;;5026463;28;20131;-69
2023/06/28 03:35:18;;;;;;;2.88;1.20;;;15.80;99.90;;;;;;5012215;28;20056;-69
2023/06/28 03:37:54;;;;;;;3.47;1.58;;;15.80;99.90;;;;;;4998351;28;20115;-69
2023/06/28 03:40:21;;;;;;;2.47;1.27;;;15.80;99.90;;;;;;5025264;28;20187;-69
2023/06/28 03:42:48;;;;;;;3.17;1.40;;;15.80;99.90;;;;;;5026816;28;20101;-69
2023/06/28 03:45:14;;;;;;;2.67;1.25;;;15.80;99.90;;;;;;5013530;28;20049;-69
2023/06/28 03:47:40;;;;;;;4.32;1.20;;;15.80;99.90;;;;;;5020275;28;20134;-69
2023/06/28 03:50:06;;;;;;;2.20;1.30;;;15.80;99.90;;;;;;5013495;28;20460;-69
2023/06/28 03:52:32;;;;;;;5.28;1.25;;;15.80;99.90;;;;;;5016106;28;20502;-69
2023/06/28 03:54:58;;;;;;;3.63;1.38;;;15.80;99.90;;;;;;5028818;28;20056;-69
2023/06/28 03:57:24;;;;;;;6.45;1.58;;;15.80;99.90;;;;;;4998353;28;20087;-69
2023/06/28 03:59:49;;;;;;;4.93;1.38;;;15.80;99.90;;;;;;5005643;28;20042;-69
2023/06/28 04:02:15;;;;;;;4.15;1.58;;;15.80;99.90;;;;;;5014253;28;20073;-69
2023/06/28 04:04:41;;;;;;;5.65;2.13;;;15.80;99.90;;;;;;5023527;28;20037;-69
2023/06/28 04:07:07;;;;;;;6.13;1.67;;;15.80;99.90;;;;;;5032200;28;20095;-69
2023/06/28 04:09:33;;;;;;;6.60;2.53;;;15.80;99.90;;;;;;5016804;28;20601;-69
2023/06/28 04:11:58;;;;;;;4.25;2.10;;;15.80;99.90;;;;;;5001400;28;20226;-68
2023/06/28 04:14:24;;;;;;;3.45;1.73;;;15.80;99.90;;;;;;5010662;28;20307;-69
2023/06/28 04:16:53;;;;;;;4.20;1.92;;;15.80;99.90;;;;;;5011114;28;20045;-69
2023/06/28 04:19:19;;;;;;;7.00;1.98;;;15.80;99.90;;;;;;5022733;28;20420;-69
2023/06/28 04:21:45;;;;;;;2.90;1.60;;;15.80;99.90;;;;;;5022465;28;20091;-69
2023/06/28 04:24:11;;;;;;;5.68;1.55;;;15.80;99.90;;;;;;5028619;28;20461;-69
2023/06/28 04:26:37;;;;;;;4.15;1.75;;;15.80;99.90;;;;;;5004065;28;20374;-69
2023/06/28 04:29:02;;;;;;;4.07;1.70;;;15.80;99.90;;;;;;5021046;28;20148;-69
2023/06/28 04:31:28;;;;;;;3.35;2.05;;;15.80;99.90;;;;;;5026554;28;20534;-68
2023/06/28 04:33:57;;;;;;;;;;;15.80;99.90;;;;;;5013468;28;20468;-69
2023/06/28 04:36:25;;;;;;;7.57;1.30;;;15.80;99.90;;;;;;4992782;28;20332;-69
2023/06/28 04:38:52;;;;;;;5.30;1.38;;;15.80;99.90;;;;;;5020769;28;20484;-69
2023/06/28 04:41:27;;;;;;;3.15;1.20;;;15.80;99.90;;;;;;5012413;28;20056;-69
2023/06/28 04:43:55;;;;;;;2.70;0.98;;;15.80;99.90;;;;;;5018663;28;20041;-69
2023/06/28 04:46:22;;;;;;;2.63;1.45;;;15.80;99.90;;;;;;5001899;28;20042;-69
2023/06/28 04:48:49;;;;;;;3.40;1.58;;;15.80;99.90;;;;;;5020143;28;20057;-69
2023/06/28 04:51:15;;;;;;;3.80;1.52;;;15.80;99.90;;;;;;5003879;28;20129;-69
2023/06/28 04:53:40;;;;;;;4.60;1.50;;;15.80;99.90;;;;;;5026497;28;20399;-70
2023/06/28 04:56:06;;;;;;;4.15;1.40;;;15.90;99.90;;;;;;5024365;28;20046;-69
2023/06/28 04:58:33;;;;;;;3.15;1.20;;;15.80;99.90;;;;;;5025203;28;20538;-69
2023/06/28 05:01:03;;;;;;;4.25;1.52;;;15.90;99.90;;;;;;5014254;28;20034;-69
2023/06/28 05:03:29;;;;;;;5.88;2.00;;;15.90;99.90;;;;;;5018459;28;20041;-69
2023/06/28 05:05:54;;;;;;;5.22;1.80;;;15.90;99.90;;;;;;5012432;28;20583;-69
2023/06/28 05:08:21;;;;;;;6.03;2.00;;;15.90;99.90;;;;;;5001340;28;20132;-69
2023/06/28 05:10:46;;;;;;;;;;;15.90;99.90;;;;;;5018776;28;20484;-69
2023/06/28 05:13:12;;;;;;;5.00;2.13;;;15.90;99.90;;;;;;5020121;28;19921;-69
2023/06/28 05:15:37;;;;;;;3.92;2.00;;;15.90;99.90;;;;;;5012586;28;20137;-70
2023/06/28 05:18:04;;;;;;;6.47;2.15;;;15.90;99.90;;;;;;5024608;28;20048;-69
2023/06/28 05:20:31;;;;;;;4.65;1.90;;;15.90;99.90;;;;;;5023817;28;20045;-69
2023/06/28 05:23:13;;;;;;;4.78;2.67;;;15.90;99.90;;;;;;5001691;28;20218;-69
2023/06/28 05:25:40;;;;;;;3.28;1.92;;;15.80;99.90;;;;;;5017709;28;20060;-69
2023/06/28 05:28:07;;;;;;;5.88;2.60;;;15.80;99.90;;;;;;5001398;28;20124;-69
2023/06/28 05:30:33;;;;;;;6.30;2.38;;;15.80;99.90;;;;;;5006618;28;20049;-69
2023/06/28 05:33:01;;;;;;;5.50;2.53;;;15.80;99.90;;;;;;5012942;28;20085;-69
2023/06/28 05:35:29;;;;;;;8.15;2.80;;;15.80;99.90;;;;;;5007723;28;20367;-69
2023/06/28 05:37:54;;;;;;;6.72;2.85;;;15.80;99.90;;;;;;5012223;28;20037;-69
2023/06/28 05:40:20;;;;;;;5.57;2.38;;;15.80;99.90;;;;;;5016426;28;20045;-69
2023/06/28 05:42:46;;;;;;;5.20;2.78;;;15.80;99.90;;;;;;5022503;28;20125;-69
2023/06/28 05:45:11;;;;;;;6.22;2.60;;;15.90;99.90;;;;;;5015418;28;20145;-69
2023/06/28 05:47:37;;;;;;;6.57;2.38;;;15.90;99.90;;;;;;5005355;28;20038;-69
2023/06/28 05:50:03;;;;;;;5.97;3.22;;;15.90;99.90;;;;;;5006519;28;20041;-68
2023/06/28 05:52:29;;;;;;;8.13;2.92;;;15.90;99.90;;;;;;5003627;28;20356;-69
2023/06/28 05:54:54;;;;;;;12.05;2.88;;;15.80;99.90;;;;;;5029348;28;20033;-69
2023/06/28 05:57:20;;;;;;;6.70;2.90;;;15.80;99.90;;;;;;5020428;28;20046;-69
2023/06/28 05:59:45;;;;;;;7.05;2.78;;;15.80;99.90;;;;;;5012101;28;20117;-69
2023/06/28 06:02:11;;;;;;;5.88;2.70;;;15.80;99.90;;;;;;5014835;28;20522;-69
2023/06/28 06:04:37;;;;;;;6.13;2.85;;;15.80;99.90;;;;;;5018144;28;20113;-69
2023/06/28 06:07:03;;;;;;;6.75;2.80;;;15.80;99.90;;;;;;5001056;28;20037;-69
2023/06/28 06:09:30;;;;;;;7.72;3.22;;;15.80;99.90;;;;;;5025920;28;20045;-69
2023/06/28 06:11:56;;;;;;;8.50;3.08;;;15.80;99.90;;;;;;5003456;28;20041;-69
2023/06/28 06:14:21;;;;;;;6.40;3.33;;;15.90;99.90;;;;;;5011397;28;20250;-69
2023/06/28 06:16:47;;;;;;;6.78;3.08;;;15.90;99.90;;;;;;5021426;28;20523;-69
2023/06/28 06:19:13;;;;;;;7.13;3.47;;;15.80;99.90;;;;;;5010286;28;20045;-69
2023/06/28 06:21:39;;;;;;;6.68;2.63;;;15.80;99.90;;;;;;5003287;28;20050;-69
2023/06/28 06:24:07;;;;;;;10.88;3.20;;;15.80;99.90;;;;;;5006210;28;20488;-69
2023/06/28 06:26:35;;;;;;;10.57;3.42;;;15.80;99.90;;;;;;5017444;28;20056;-69
2023/06/28 06:29:01;;;;;;;6.55;3.38;;;15.80;99.90;;;;;;5019176;28;20631;-69
2023/06/28 06:31:27;;;;;;;;;;;15.80;99.90;;;;;;4997093;28;20138;-70
2023/06/28 06:33:52;;;;;;;6.82;3.05;;;15.80;99.90;;;;;;5019645;28;20375;-70
2023/06/28 06:36:18;;;;;;;6.18;3.05;;;15.80;99.90;;;;;;5020376;28;20155;-69
2023/06/28 06:38:44;;;;;;;8.90;3.05;;;15.70;99.90;;;;;;5024731;28;20130;-69
2023/06/28 06:41:09;;;;;;;7.47;3.13;;;15.80;99.90;;;;;;5020457;28;20057;-70
2023/06/28 06:43:35;;;;;;;8.18;2.97;;;15.80;99.90;;;;;;5005749;28;20046;-69
2023/06/28 06:48:53;;;;;;;6.82;2.90;;;15.80;99.90;;;;;;5031215;28;20454;-84
2023/06/28 06:51:34;;;;;;;5.90;3.28;;;15.90;99.90;;;;;;5029791;28;20037;-85
2023/06/28 06:54:16;;;;;;;6.60;3.08;;;15.80;99.90;;;;;;4994045;28;20049;-85
2023/06/28 06:57:15;;;;;;;6.13;3.28;;;15.90;99.90;;;;;;5028709;28;20073;-86
2023/06/28 07:00:40;;;;;;;7.63;3.72;;;15.80;99.90;;;;;;5020353;28;20080;-86
2023/06/28 07:03:27;;;;;;;7.07;3.13;;;15.90;99.90;;;;;;5004548;28;20059;-86
2023/06/28 07:06:17;;;;;;;6.88;3.03;;;15.90;99.90;;;;;;5007322;28;20576;-85
2023/06/28 07:08:51;;;;;;;6.38;3.22;;;15.90;99.90;;;;;;5030831;28;20039;-85
2023/06/28 07:11:25;;;;;;;5.30;2.92;;;16.00;99.90;;;;;;5008199;28;20037;-85
2023/06/28 07:14:01;;;;;;;7.20;3.30;;;15.90;99.90;;;;;;5036030;28;20083;-85
2023/06/28 07:19:56;;;;;;;8.18;3.45;;;16.00;99.90;;;;;;5021708;28;20116;-86
2023/06/28 07:22:32;;;;;;;9.82;3.53;;;16.00;99.90;;;;;;5009140;28;20049;-83
2023/06/28 07:25:08;;;;;;;5.45;2.80;;;16.00;99.90;;;;;;5031711;28;20125;-84
2023/06/28 07:27:46;;;;;;;7.15;3.30;;;16.00;99.90;;;;;;5042958;28;20033;-83
2023/06/28 07:30:20;;;;;;;7.47;3.17;;;16.00;99.90;;;;;;5040263;28;20045;-86
2023/06/28 07:32:45;;;;;;;7.82;3.38;;;16.00;99.90;;;;;;5031075;28;20499;-83
2023/06/28 07:35:14;;;;;;;7.57;2.90;;;16.00;99.90;;;;;;5041189;28;20045;-85
2023/06/28 07:37:42;;;;;;;13.60;3.13;;;15.90;99.90;;;;;;5037989;28;20049;-85
2023/06/28 07:40:22;;;;;;;6.38;2.78;;;16.00;99.90;;;;;;5041642;28;20049;-84
2023/06/28 07:43:04;;;;;;;6.95;3.28;;;15.90;99.90;;;;;;5037835;28;20049;-85
2023/06/28 07:45:45;;;;;;;8.93;3.53;;;16.00;99.90;;;;;;5027785;28;20164;-85
2023/06/28 07:48:20;;;;;;;10.35;3.35;;;16.10;99.90;;;;;;5019016;28;20072;-85
2023/06/28 07:50:49;;;;;;;8.02;3.13;;;16.10;99.90;;;;;;5020193;28;20042;-83
2023/06/28 07:53:20;;;;;;;6.30;3.45;;;16.10;99.90;;;;;;5039901;28;20048;-85
2023/06/28 07:55:49;;;;;;;5.35;3.28;;;16.10;99.90;;;;;;5039479;28;20120;-86
2023/06/28 07:58:27;;;;;;;9.00;3.33;;;16.10;99.90;;;;;;5042160;28;20150;-84
2023/06/28 08:01:10;;;;;;;5.82;2.92;;;16.10;99.90;;;;;;5040273;28;20045;-85
2023/06/28 08:03:50;;;;;;;8.85;3.20;;;16.10;99.90;;;;;;5019097;28;20152;-85
2023/06/28 08:06:37;;;;;;;8.02;3.55;;;16.10;99.90;;;;;;5037418;28;20049;-85
2023/06/28 08:09:24;;;;;;;9.23;3.47;;;16.10;99.90;;;;;;5034555;28;20045;-85
2023/06/28 08:12:33;;;;;;;9.57;3.50;;;16.10;99.90;;;;;;5034146;28;20045;-86
2023/06/28 08:15:18;;;;;;;10.35;3.92;;;16.00;99.90;;;;;;5041445;28;20083;-85
2023/06/28 08:18:01;;;;;;;7.68;3.38;;;16.00;99.90;;;;;;5038322;28;20056;-85
2023/06/28 08:20:38;;;;;;;7.28;3.78;;;16.00;99.90;;;;;;5038232;28;20054;-85
2023/06/28 08:23:36;;;;;;;7.65;3.63;;;16.10;99.90;;;;;;5062963;28;20575;-83
2023/06/28 08:26:40;;;;;;;7.32;4.35;;;16.10;99.90;;;;;;5018746;28;20076;-85
2023/06/28 08:29:16;;;;;;;8.93;3.67;;;16.10;99.90;;;;;;5033905;28;20052;-83
2023/06/28 08:32:06;;;;;;;6.60;4.25;;;16.10;99.90;;;;;;5036966;28;20043;-84
2023/06/28 08:34:55;;;;;;;6.93;3.55;;;16.10;99.90;;;;;;5027769;28;20036;-86
2023/06/28 08:37:46;;;;;;;6.97;4.05;;;16.00;99.90;;;;;;5019711;28;20124;-85
2023/06/28 08:40:42;;;;;;;8.25;3.83;;;16.10;99.90;;;;;;5023013;28;20037;-85
2023/06/28 08:43:34;;;;;;;10.18;4.78;;;16.20;99.90;;;;;;5033863;28;20101;-85
2023/06/28 08:46:29;;;;;;;;;;;;;;;;;;;;;
2023/06/28 08:49:31;;;;;;;10.63;4.60;;;16.20;99.90;;;;;;5035323;28;20071;-85
2023/06/28 08:52:21;;;;;;;9.70;5.00;;;16.30;99.90;;;;;;5037880;28;20045;-85
2023/06/28 08:55:24;;;;;;;10.88;5.40;;;16.30;99.90;;;;;;5038269;28;20104;-85
2023/06/28 08:58:21;;;;;;;9.80;4.88;;;16.30;99.90;;;;;;5050992;28;20098;-84
2023/06/28 09:00:59;;;;;;;9.73;5.13;;;16.30;99.90;;;;;;5015648;28;20071;-85
2023/06/28 09:03:38;;;;;;;8.35;5.13;;;16.30;99.90;;;;;;5027671;28;20037;-84
2023/06/28 09:06:16;;;;;;;11.35;5.30;;;16.40;99.90;;;;;;5018066;28;20055;-85
2023/06/28 09:08:58;;;;;;;11.13;4.75;;;16.40;99.90;;;;;;5022798;28;20029;-85
2023/06/28 09:11:27;;;;;;;10.18;5.30;;;16.50;99.90;;;;;;5043439;28;20080;-85
2023/06/28 09:14:14;;;;;;;7.50;4.75;;;16.50;99.90;;;;;;5025660;28;20500;-84
2023/06/28 09:16:46;;;;;;;12.85;5.90;;;16.60;99.90;;;;;;5054016;28;20458;-84
2023/06/28 09:19:25;;;;;;;10.75;5.68;;;16.60;99.90;;;;;;5033492;28;20043;-84
2023/06/28 09:22:10;;;;;;;13.73;5.35;;;16.60;99.90;;;;;;5030503;28;20041;-84
2023/06/28 09:24:44;;;;;;;9.15;4.95;;;16.60;99.90;;;;;;5020373;28;20068;-83
2023/06/28 09:28:08;;;;;;;9.95;5.70;;;16.60;99.90;;;;;;5034950;28;20084;-85
2023/06/28 09:31:22;;;;;;;12.38;5.43;;;16.60;99.90;;;;;;5027552;28;20611;-84
2023/06/28 09:34:26;;;;;;;10.48;5.82;;;16.60;99.90;;;;;;5032160;28;20457;-85
2023/06/28 09:40:22;;;;;;;9.80;5.10;;;16.70;99.90;;;;;;5033152;28;20041;-84
2023/06/28 09:43:21;;;;;;;9.13;5.32;;;16.70;99.90;;;;;;4993820;28;20053;-84
2023/06/28 09:46:19;;;;;;;10.00;6.25;;;16.80;99.90;;;;;;5016101;28;20088;-85
2023/06/28 09:48:51;;;;;;;9.20;5.78;;;16.80;99.90;;;;;;5014791;28;20582;-85
2023/06/28 09:52:02;;;;;;;12.18;6.25;;;16.80;99.90;;;;;;5023521;28;20040;-85
2023/06/28 09:54:57;;;;;;;8.98;5.55;;;16.90;99.90;;;;;;5033806;28;20049;-86
2023/06/28 09:57:27;;;;;;;8.68;5.72;;;16.90;99.90;;;;;;5001186;28;20048;-86
2023/06/28 10:00:18;;;;;;;8.68;5.53;;;16.90;99.90;;;;;;5031879;28;20126;-85
2023/06/28 10:03:32;;;;;;;8.75;5.68;;;16.90;99.90;;;;;;5045973;28;20131;-85
2023/06/28 10:10:18;;;;;;;11.98;5.75;;;17.00;99.90;;;;;;4964318;28;20042;-85
2023/06/28 10:17:03;;;;;;;9.93;5.43;;;17.00;99.90;;;;;;5028207;28;20041;-86
2023/06/28 10:20:18;;;;;;;10.77;5.80;;;17.00;99.90;;;;;;5043007;28;20044;-85
2023/06/28 10:26:35;;;;;;;11.63;5.75;;;17.00;99.90;;;;;;5033147;28;20106;-84
2023/06/28 10:29:51;;;;;;;8.13;5.70;;;17.00;99.90;;;;;;5028305;28;20051;-85
2023/06/28 10:33:06;;;;;;;;;;;;;;;;;;;;;
2023/06/28 10:36:10;;;;;;;9.57;6.10;;;17.00;99.90;;;;;;4956953;28;20045;-84
2023/06/28 10:39:27;;;;;;;12.07;6.40;;;17.00;99.90;;;;;;5027874;28;20322;-85
2023/06/28 10:42:29;;;;;;;13.75;6.53;;;17.00;99.90;;;;;;5004035;28;20056;-86
2023/06/28 10:45:39;;;;;;;11.00;6.10;;;17.10;99.90;;;;;;5016152;28;20037;-85
2023/06/28 10:52:32;;;;;;;10.98;6.65;;;17.10;99.90;;;;;;5003548;28;20132;-85
2023/06/28 10:55:11;;;;;;;9.43;6.45;;;17.10;99.90;;;;;;4934940;29;20043;-85
2023/06/28 10:57:47;;;;;;;12.65;6.82;;;17.10;99.90;;;;;;5031150;28;20041;-85
2023/06/28 11:01:18;;;;;;;14.27;6.93;;;17.20;99.90;;;;;;5020147;28;20052;-86
2023/06/28 11:04:29;;;;;;;10.50;7.13;;;17.20;99.90;;;;;;4977096;28;20061;-83
2023/06/28 11:07:18;;;;;;;10.80;6.85;;;17.20;99.90;;;;;;4921358;29;20052;-84
2023/06/28 11:10:31;;;;;;;10.63;6.93;;;17.30;99.90;;;;;;4984251;28;20425;-84
2023/06/28 11:13:35;;;;;;;13.13;8.02;;;17.20;99.90;;;;;;4952780;28;20049;-85
2023/06/28 11:16:24;;;;;;;10.85;6.82;;;17.20;99.90;;;;;;4990768;28;20074;-81
2023/06/28 11:19:29;;;;;;;11.45;6.65;;;17.30;99.90;;;;;;5031452;28;20272;-84
2023/06/28 11:22:21;;;;;;;12.27;7.07;;;17.20;99.90;;;;;;5036246;28;20484;-84
2023/06/28 11:25:10;;;;;;;10.55;6.90;;;17.30;99.90;;;;;;5014537;28;20037;-84
2023/06/28 11:27:47;;;;;;;11.88;7.00;;;17.40;99.90;;;;;;5016012;28;20052;-84
2023/06/28 11:30:22;;;;;;;11.57;7.90;;;17.40;99.90;;;;;;5036552;28;20116;-84
2023/06/28 11:35:57;;;;;;;11.82;8.15;;;17.40;99.90;;;;;;5051415;28;20040;-85
2023/06/28 11:38:23;;;;;;;12.90;8.07;;;17.40;99.90;;;;;;5015789;28;20041;-85
2023/06/28 11:41:12;;;;;;;13.57;8.27;;;17.40;99.90;;;;;;5034575;28;20051;-83
2023/06/28 11:43:38;;;;;;;13.10;7.93;;;17.50;99.90;;;;;;5035648;28;20544;-84
2023/06/28 11:46:07;;;;;;;12.98;8.63;;;17.40;99.90;;;;;;5019886;28;20139;-87
2023/06/28 11:48:50;;;;;;;13.43;8.68;;;17.40;99.90;;;;;;5035075;28;20053;-84
2023/06/28 11:51:21;;;;;;;18.00;9.55;;;17.40;99.90;;;;;;5054149;28;20048;-85
2023/06/28 11:54:08;;;;;;;16.73;9.48;;;17.50;99.90;;;;;;5035673;28;20420;-83
2023/06/28 11:57:00;;;;;;;17.52;9.63;;;17.50;99.90;;;;;;5035103;28;20044;-83
2023/06/28 11:59:44;;;;;;;15.07;9.73;;;17.50;99.90;;;;;;5035389;28;20123;-84
2023/06/28 12:02:13;;;;;;;22.25;11.48;;;17.40;99.90;;;;;;5028222;28;20050;-84
2023/06/28 12:04:57;;;;;;;19.83;11.00;;;17.50;99.90;;;;;;5011629;28;20511;-84
2023/06/28 12:07:53;;;;;;;18.33;10.77;;;17.60;99.90;;;;;;5032618;28;20080;-84
2023/06/28 12:11:03;;;;;;;17.02;9.93;;;17.60;99.90;;;;;;5019478;28;20037;-81
2023/06/28 12:13:50;;;;;;;17.45;11.40;;;17.50;99.90;;;;;;5018179;28;20042;-84
2023/06/28 12:16:45;;;;;;;19.60;11.77;;;17.60;99.90;;;;;;5018090;28;20471;-83
2023/06/28 12:19:20;;;;;;;19.90;11.73;;;17.60;99.90;;;;;;5031031;28;20060;-83
2023/06/28 12:22:03;;;;;;;23.50;11.73;;;17.60;99.90;;;;;;5033121;28;20076;-84
2023/06/28 12:24:43;;;;;;;25.80;12.10;;;17.60;99.90;;;;;;5019075;28;20045;-83
2023/06/28 12:27:11;;;;;;;21.98;12.05;;;17.70;99.90;;;;;;5016844;28;20047;-84
2023/06/28 12:29:42;;;;;;;21.30;13.07;;;17.70;99.90;;;;;;5031112;28;20067;-84
2023/06/28 12:32:26;;;;;;;24.25;13.45;;;17.80;99.90;;;;;;5034459;28;20042;-84
2023/06/28 12:35:17;;;;;;;;;;;;;;;;;;;;;
2023/06/28 12:37:52;;;;;;;22.02;14.05;;;17.90;99.90;;;;;;5030843;28;20047;-85
2023/06/28 12:40:31;;;;;;;25.30;14.57;;;17.90;99.90;;;;;;5047991;28;20091;-83
2023/06/28 12:43:48;;;;;;;22.48;13.90;;;17.90;99.90;;;;;;5034253;28;20036;-85
2023/06/28 12:46:40;;;;;;;22.10;13.63;;;17.90;99.90;;;;;;5043603;28;20037;-83
2023/06/28 12:49:19;;;;;;;24.60;14.07;;;18.00;99.90;;;;;;5034754;28;20049;-84
2023/06/28 12:52:22;;;;;;;28.58;14.10;;;17.90;99.90;;;;;;5033960;28;20375;-84
2023/06/28 12:55:30;;;;;;;26.35;14.02;;;18.20;99.90;;;;;;5040369;28;20234;-83
2023/06/28 12:57:59;;;;;;;31.70;16.23;;;18.10;99.90;;;;;;5004432;23;20522;-68
2023/06/28 13:00:24;;;;;;;26.77;15.00;;;18.20;99.90;;;;;;5009723;28;20045;-68
2023/06/28 13:02:50;;;;;;;28.48;14.45;;;18.20;99.90;;;;;;5000048;28;20044;-68
2023/06/28 13:05:16;;;;;;;27.52;16.05;;;18.20;99.90;;;;;;5010752;28;20045;-69
2023/06/28 13:07:41;;;;;;;28.77;15.27;;;18.30;99.90;;;;;;5011226;28;20284;-68
2023/06/28 13:10:09;;;;;;;28.30;14.63;;;18.30;99.90;;;;;;5028263;28;20066;-69
2023/06/28 13:12:34;;;;;;;30.10;16.23;;;18.40;99.90;;;;;;5029147;28;20073;-69
2023/06/28 13:15:00;;;;;;;28.73;15.65;;;18.40;99.90;;;;;;5029209;28;20437;-68
2023/06/28 13:17:26;;;;;;;26.25;15.63;;;18.40;99.90;;;;;;5028887;28;20123;-68
2023/06/28 13:19:51;;;;;;;33.40;16.52;;;18.40;99.90;;;;;;5011050;28;20399;-69
2023/06/28 13:22:17;;;;;;;32.70;16.77;;;18.40;99.90;;;;;;5010578;28;20441;-68
2023/06/28 13:24:43;;;;;;;33.10;15.95;;;18.40;99.90;;;;;;5010184;28;20471;-68
2023/06/28 13:27:08;;;;;;;30.77;15.45;;;18.40;99.90;;;;;;5028670;28;20128;-69
2023/06/28 13:29:34;;;;;;;25.83;16.70;;;18.40;99.90;;;;;;5029045;28;20038;-68
2023/06/28 13:32:00;;;;;;;32.55;17.92;;;18.30;99.90;;;;;;5026434;28;20431;-68
2023/06/28 13:34:25;;;;;;;27.75;15.88;;;18.40;99.90;;;;;;5011178;28;20488;-69
2023/06/28 13:36:51;;;;;;;31.15;16.05;;;18.40;99.90;;;;;;5010471;28;20389;-69
2023/06/28 13:39:17;;;;;;;27.30;16.08;;;18.40;99.90;;;;;;5011079;28;20037;-68
2023/06/28 13:41:43;;;;;;;29.58;17.17;;;18.40;99.90;;;;;;5011193;28;20123;-68
2023/06/28 13:44:09;;;;;;;28.45;16.35;;;18.40;99.90;;;;;;5011163;28;20049;-68
2023/06/28 13:46:34;;;;;;;28.00;16.48;;;18.40;99.90;;;;;;5010394;28;20099;-68
2023/06/28 13:49:00;;;;;;;28.67;16.95;;;18.40;99.90;;;;;;5010806;28;20037;-68
2023/06/28 13:51:26;;;;;;;30.80;17.00;;;18.40;99.90;;;;;;5010987;28;20069;-68
2023/06/28 13:53:54;;;;;;;31.20;15.75;;;18.50;99.90;;;;;;5026948;28;20036;-68